createdAt,value
2023-05-11T00:01:28.672Z,93.75
2023-05-11T00:03:56.371Z,93.64
2023-05-11T00:06:23.178Z,93.83
2023-05-11T00:08:49.870Z,93.97
2023-05-11T00:11:18.512Z,93.94
2023-05-11T00:13:45.799Z,94.38
2023-05-11T00:16:12.596Z,94.15
2023-05-11T00:18:39.226Z,94.53
2023-05-11T00:21:06.084Z,94.26
2023-05-11T00:23:33.059Z,94.43
2023-05-11T00:25:59.660Z,94.54
2023-05-11T00:28:26.284Z,94.34
2023-05-11T00:30:57.476Z,94.69
2023-05-11T00:33:24.362Z,94.61
2023-05-11T00:35:51.527Z,94.39
2023-05-11T00:38:18.079Z,94.25
2023-05-11T00:40:44.746Z,94.23
2023-05-11T00:43:11.469Z,94.40
2023-05-11T00:45:38.121Z,94.45
2023-05-11T00:48:04.937Z,94.52
2023-05-11T00:50:31.853Z,94.45
2023-05-11T00:52:59.857Z,94.48
2023-05-11T00:55:27.442Z,94.78
2023-05-11T00:57:54.170Z,94.67
2023-05-11T01:00:21.775Z,95.09
2023-05-11T01:02:48.883Z,95.00
2023-05-11T01:05:15.660Z,94.95
2023-05-11T01:08:00.342Z,95.06
2023-05-11T01:10:46.517Z,94.94
2023-05-11T01:13:28.256Z,95.03
2023-05-11T01:15:58.428Z,95.06
2023-05-11T01:18:34.225Z,94.83
2023-05-11T01:21:02.132Z,95.04
2023-05-11T01:23:34.849Z,95.15
2023-05-11T01:26:16.553Z,95.27
2023-05-11T01:29:08.913Z,95.25
2023-05-11T01:31:41.833Z,95.20
2023-05-11T01:34:17.114Z,95.11
2023-05-11T01:36:53.161Z,95.39
2023-05-11T01:39:24.923Z,95.45
2023-05-11T01:41:53.688Z,95.46
2023-05-11T01:44:22.571Z,95.43
2023-05-11T01:46:50.538Z,95.84
2023-05-11T01:49:18.828Z,96.08
2023-05-11T01:51:49.459Z,96.03
2023-05-11T01:54:18.895Z,95.92
2023-05-11T01:56:46.159Z,95.91
2023-05-11T01:59:14.228Z,95.95
2023-05-11T02:01:41.594Z,96.07
2023-05-11T02:04:09.771Z,96.01
2023-05-11T02:06:38.118Z,96.23
2023-05-11T02:09:07.077Z,95.99
2023-05-11T02:11:35.223Z,96.14
2023-05-11T02:14:03.416Z,96.22
2023-05-11T02:16:32.629Z,96.09
2023-05-11T02:19:02.940Z,95.91
2023-05-11T02:21:32.329Z,96.38
2023-05-11T02:24:03.238Z,96.30
2023-05-11T02:26:29.844Z,96.30
2023-05-11T02:28:56.836Z,96.27
2023-05-11T02:31:28.190Z,96.31
2023-05-11T02:33:59.661Z,96.52
2023-05-11T02:36:29.643Z,96.52
2023-05-11T02:39:05.826Z,96.42
2023-05-11T02:41:37.788Z,96.42
2023-05-11T02:44:07.537Z,96.59
2023-05-11T02:46:36.722Z,96.55
2023-05-11T02:49:07.002Z,96.61
2023-05-11T02:51:36.871Z,96.73
2023-05-11T02:54:07.080Z,96.91
2023-05-11T02:56:34.045Z,96.60
2023-05-11T02:59:00.765Z,96.47
2023-05-11T03:01:30.656Z,96.72
2023-05-11T03:03:58.186Z,96.68
2023-05-11T03:06:25.670Z,97.00
2023-05-11T03:08:52.621Z,97.52
2023-05-11T03:11:19.943Z,97.09
2023-05-11T03:13:47.069Z,97.20
2023-05-11T03:16:14.468Z,97.28
2023-05-11T03:18:43.076Z,97.53
2023-05-11T03:21:10.255Z,98.10
2023-05-11T03:23:39.596Z,98.02
2023-05-11T03:26:07.530Z,98.21
2023-05-11T03:28:36.784Z,98.24
2023-05-11T03:31:03.606Z,98.34
2023-05-11T03:33:33.482Z,98.09
2023-05-11T03:36:02.544Z,98.01
2023-05-11T03:38:30.753Z,97.90
2023-05-11T03:40:58.420Z,97.85
2023-05-11T03:43:28.582Z,97.96
2023-05-11T03:45:57.174Z,98.09
2023-05-11T03:48:24.059Z,98.13
2023-05-11T03:50:51.933Z,98.28
2023-05-11T03:53:19.917Z,98.37
2023-05-11T03:55:46.701Z,98.55
2023-05-11T03:58:13.619Z,98.47
2023-05-11T04:00:41.603Z,98.32
2023-05-11T04:03:09.262Z,98.24
2023-05-11T04:05:36.173Z,97.57
2023-05-11T04:08:04.008Z,96.38
2023-05-11T04:10:30.684Z,94.35
2023-05-11T04:12:57.533Z,93.58
2023-05-11T04:15:24.265Z,92.83
2023-05-11T04:17:50.834Z,91.03
2023-05-11T04:20:17.717Z,90.66
2023-05-11T04:22:44.544Z,89.78
2023-05-11T04:25:11.499Z,89.07
2023-05-11T04:27:39.675Z,88.67
2023-05-11T04:30:07.034Z,88.60
2023-05-11T04:32:33.685Z,88.20
2023-05-11T04:35:00.554Z,87.59
2023-05-11T04:37:27.240Z,86.34
2023-05-11T04:39:53.866Z,86.03
2023-05-11T04:42:20.469Z,85.76
2023-05-11T04:44:47.104Z,85.25
2023-05-11T04:47:15.398Z,84.58
2023-05-11T04:49:44.130Z,84.25
2023-05-11T04:52:10.888Z,84.26
2023-05-11T04:54:39.100Z,83.58
2023-05-11T04:57:05.750Z,83.39
2023-05-11T04:59:33.520Z,82.98
2023-05-11T05:02:00.351Z,82.06
2023-05-11T05:04:26.923Z,81.76
2023-05-11T05:06:53.550Z,81.73
2023-05-11T05:09:20.259Z,81.07
2023-05-11T05:11:46.792Z,80.63
2023-05-11T05:14:13.510Z,80.55
2023-05-11T05:16:40.058Z,80.61
2023-05-11T05:19:06.781Z,79.75
2023-05-11T05:21:35.682Z,79.27
2023-05-11T05:24:04.213Z,78.37
2023-05-11T05:26:30.807Z,78.63
2023-05-11T05:28:57.349Z,78.46
2023-05-11T05:31:24.549Z,77.53
2023-05-11T05:33:51.161Z,76.77
2023-05-11T05:36:17.791Z,76.60
2023-05-11T05:38:44.424Z,76.06
2023-05-11T05:41:10.980Z,76.00
2023-05-11T05:43:37.571Z,75.09
2023-05-11T05:46:04.338Z,75.43
2023-05-11T05:48:30.943Z,74.48
2023-05-11T05:50:57.589Z,73.54
2023-05-11T05:53:24.235Z,70.52
2023-05-11T05:55:50.817Z,64.56
2023-05-11T05:58:17.444Z,59.39
2023-05-11T06:00:44.117Z,55.84
2023-05-11T06:03:11.504Z,54.56
2023-05-11T06:05:38.165Z,53.41
2023-05-11T06:08:10.713Z,51.01
2023-05-11T06:10:38.125Z,50.29
2023-05-11T06:13:04.914Z,48.67
2023-05-11T06:15:31.554Z,47.92
2023-05-11T06:17:58.108Z,47.20
2023-05-11T06:20:24.945Z,46.77
2023-05-11T06:22:51.558Z,47.01
2023-05-11T06:25:18.222Z,46.86
2023-05-11T06:27:44.925Z,46.80
2023-05-11T06:30:11.702Z,47.11
2023-05-11T06:32:38.329Z,47.18
2023-05-11T06:35:05.461Z,45.91
2023-05-11T06:37:32.227Z,47.14
2023-05-11T06:39:59.327Z,45.45
2023-05-11T06:42:26.042Z,44.64
2023-05-11T06:44:52.814Z,44.72
2023-05-11T06:47:19.614Z,44.99
2023-05-11T06:49:46.176Z,44.60
2023-05-11T06:52:12.767Z,42.48
2023-05-11T06:54:39.539Z,43.17
2023-05-11T06:57:06.255Z,42.32
2023-05-11T06:59:32.863Z,40.55
2023-05-11T07:01:59.465Z,41.17
2023-05-11T07:04:26.174Z,43.32
2023-05-11T07:06:53.389Z,42.63
2023-05-11T07:09:19.988Z,41.38
2023-05-11T07:11:46.642Z,40.89
2023-05-11T07:14:13.187Z,40.33
2023-05-11T07:16:39.852Z,38.32
2023-05-11T07:19:08.522Z,37.53
2023-05-11T07:21:36.018Z,37.05
2023-05-11T07:24:03.896Z,36.38
2023-05-11T07:26:30.745Z,36.14
2023-05-11T07:28:57.373Z,35.43
2023-05-11T07:31:23.984Z,35.74
2023-05-11T07:33:50.648Z,36.43
2023-05-11T07:36:17.498Z,36.84
2023-05-11T07:38:44.202Z,37.28
2023-05-11T07:41:12.496Z,35.10
2023-05-11T07:43:39.815Z,34.95
2023-05-11T07:46:06.453Z,34.98
2023-05-11T07:48:33.179Z,34.54
2023-05-11T07:51:00.871Z,35.33
2023-05-11T07:53:27.559Z,34.28
2023-05-11T07:55:54.127Z,32.32
2023-05-11T07:58:20.681Z,31.70
2023-05-11T08:00:47.295Z,31.24
2023-05-11T08:03:15.075Z,33.26
2023-05-11T08:05:41.877Z,32.86
2023-05-11T08:08:08.742Z,31.45
2023-05-11T08:10:36.297Z,31.33
2023-05-11T08:13:03.013Z,31.41
2023-05-11T08:15:29.979Z,31.03
2023-05-11T08:17:56.815Z,31.66
2023-05-11T08:20:23.607Z,30.90
2023-05-11T08:22:50.505Z,31.14
2023-05-11T08:25:17.567Z,30.78
2023-05-11T08:27:44.349Z,29.54
2023-05-11T08:30:12.041Z,29.14
2023-05-11T08:32:54.624Z,30.36
2023-05-11T08:35:24.723Z,30.35
2023-05-11T08:37:51.457Z,30.59
2023-05-11T08:40:20.163Z,29.98
2023-05-11T08:42:49.522Z,29.55
2023-05-11T08:45:17.810Z,29.61
2023-05-11T08:47:45.828Z,29.44
2023-05-11T08:50:12.800Z,31.43
2023-05-11T08:52:40.633Z,29.96
2023-05-11T08:55:10.794Z,30.32
2023-05-11T08:57:38.614Z,30.49
2023-05-11T09:00:05.729Z,28.57
2023-05-11T09:02:33.201Z,29.26
2023-05-11T09:05:01.675Z,29.20
2023-05-11T09:07:29.211Z,29.50
2023-05-11T09:09:56.310Z,28.68
2023-05-11T09:12:26.142Z,28.11
2023-05-11T09:14:52.960Z,28.39
2023-05-11T09:17:19.625Z,27.32
2023-05-11T09:20:05.425Z,28.89
2023-05-11T09:22:36.242Z,28.40
2023-05-11T09:25:04.010Z,28.02
2023-05-11T09:27:32.275Z,26.97
2023-05-11T09:30:22.270Z,27.99
2023-05-11T09:32:50.380Z,26.48
2023-05-11T09:35:27.063Z,26.13
2023-05-11T09:38:07.705Z,27.52
2023-05-11T09:40:39.954Z,27.40
2023-05-11T09:43:19.928Z,27.14
2023-05-11T09:45:48.330Z,28.01
2023-05-11T09:48:21.086Z,29.89
2023-05-11T09:50:49.696Z,28.19
2023-05-11T09:53:17.280Z,27.39
2023-05-11T09:55:54.614Z,26.88
2023-05-11T09:58:21.991Z,25.86
2023-05-11T10:00:51.201Z,27.30
2023-05-11T10:03:18.354Z,29.69
2023-05-11T10:05:57.499Z,31.78
2023-05-11T10:08:32.419Z,29.97
2023-05-11T10:10:59.167Z,30.31
2023-05-11T10:13:27.007Z,29.25
2023-05-11T10:15:56.068Z,27.92
2023-05-11T10:18:23.036Z,29.16
2023-05-11T10:20:50.001Z,30.69
2023-05-11T10:23:17.596Z,31.91
2023-05-11T10:25:44.873Z,29.58
2023-05-11T10:28:11.629Z,28.51
2023-05-11T10:30:38.478Z,29.12
2023-05-11T10:33:06.684Z,29.09
2023-05-11T10:35:33.672Z,30.13
2023-05-11T10:38:03.104Z,29.69
2023-05-11T10:40:31.197Z,29.79
2023-05-11T10:43:04.278Z,30.79
2023-05-11T10:45:45.857Z,29.80
2023-05-11T10:48:31.139Z,31.46
2023-05-11T10:51:19.263Z,32.94
2023-05-11T10:54:10.218Z,31.97
2023-05-11T10:57:07.060Z,31.66
2023-05-11T11:00:09.392Z,30.17
2023-05-11T11:02:37.128Z,28.12
2023-05-11T11:05:08.163Z,27.48
2023-05-11T11:08:04.076Z,27.47
2023-05-11T11:10:32.956Z,28.26
2023-05-11T11:13:08.810Z,29.23
2023-05-11T11:15:53.825Z,31.47
2023-05-11T11:18:25.734Z,32.80
2023-05-11T11:20:53.798Z,33.79
2023-05-11T11:23:39.498Z,34.17
2023-05-11T11:26:07.568Z,34.68
2023-05-11T11:29:01.834Z,31.37
2023-05-11T11:31:33.520Z,31.56
2023-05-11T11:34:28.816Z,31.97
2023-05-11T11:36:55.406Z,33.07
2023-05-11T11:39:22.669Z,35.13
2023-05-11T11:42:09.281Z,33.90
2023-05-11T11:44:36.832Z,34.84
2023-05-11T11:47:12.632Z,37.30
2023-05-11T11:49:41.285Z,38.05
2023-05-11T11:52:12.707Z,39.61
2023-05-11T11:54:40.871Z,38.92
2023-05-11T11:57:35.124Z,39.28
2023-05-11T12:00:05.472Z,39.37
2023-05-11T12:02:33.393Z,40.18
2023-05-11T12:05:25.739Z,39.43
2023-05-11T12:07:53.392Z,39.80
2023-05-11T12:10:21.584Z,39.67
2023-05-11T12:12:49.568Z,39.81
2023-05-11T12:15:24.350Z,38.38
2023-05-11T12:17:51.115Z,39.39
2023-05-11T12:20:19.744Z,40.01
2023-05-11T12:22:49.462Z,39.97
2023-05-11T12:25:18.109Z,37.30
2023-05-11T12:27:58.134Z,37.37
2023-05-11T12:30:27.208Z,37.36
2023-05-11T12:32:57.424Z,37.23
2023-05-11T12:35:28.258Z,37.24
2023-05-11T12:37:56.234Z,36.60
2023-05-11T12:40:23.424Z,37.73
2023-05-11T12:42:57.536Z,35.53
2023-05-11T12:45:25.388Z,36.83
2023-05-11T12:47:54.056Z,35.55
2023-05-11T12:50:21.555Z,36.13
2023-05-11T12:52:50.213Z,36.16
2023-05-11T12:55:29.838Z,37.58
2023-05-11T12:58:12.073Z,37.40
2023-05-11T13:00:54.290Z,37.65
2023-05-11T13:03:25.332Z,38.55
2023-05-11T13:05:53.062Z,38.08
2023-05-11T13:08:20.066Z,37.59
2023-05-11T13:10:47.681Z,36.47
2023-05-11T13:13:29.592Z,36.23
2023-05-11T13:15:56.227Z,36.29
2023-05-11T13:18:23.158Z,34.86
2023-05-11T13:21:05.148Z,34.76
2023-05-11T13:23:31.790Z,34.35
2023-05-11T13:25:58.396Z,36.13
2023-05-11T13:28:25.161Z,34.03
2023-05-11T13:31:00.189Z,35.01
2023-05-11T13:33:27.216Z,34.22
2023-05-11T13:35:54.319Z,34.65
2023-05-11T13:38:20.878Z,33.95
2023-05-11T13:40:47.437Z,33.82
2023-05-11T13:43:14.023Z,34.84
2023-05-11T13:45:41.338Z,36.11
2023-05-11T13:48:08.397Z,33.83
2023-05-11T13:50:34.976Z,36.21
2023-05-11T13:53:01.624Z,34.33
2023-05-11T13:55:29.498Z,33.45
2023-05-11T13:57:56.799Z,33.62
2023-05-11T14:00:23.808Z,33.66
2023-05-11T14:02:51.669Z,35.02
2023-05-11T14:05:18.837Z,32.75
2023-05-11T14:07:48.434Z,32.38
2023-05-11T14:10:16.975Z,33.08
2023-05-11T14:12:43.761Z,33.26
2023-05-11T14:15:11.258Z,32.41
2023-05-11T14:17:38.049Z,32.39
2023-05-11T14:20:06.077Z,32.23
2023-05-11T14:22:32.724Z,31.63
2023-05-11T14:24:59.935Z,31.94
2023-05-11T14:27:26.802Z,32.18
2023-05-11T14:29:54.352Z,31.70
2023-05-11T14:32:21.205Z,31.99
2023-05-11T14:34:48.623Z,31.99
2023-05-11T14:37:15.259Z,34.09
2023-05-11T14:39:42.029Z,32.84
2023-05-11T14:42:09.043Z,32.99
2023-05-11T14:44:35.777Z,32.00
2023-05-11T14:47:02.637Z,31.72
2023-05-11T14:49:29.368Z,32.01
2023-05-11T14:51:57.542Z,31.91
2023-05-11T14:54:24.144Z,31.81
2023-05-11T14:56:53.946Z,32.59
2023-05-11T14:59:21.649Z,32.77
2023-05-11T15:01:49.407Z,32.50
2023-05-11T15:04:16.852Z,32.62
2023-05-11T15:06:44.582Z,33.07
2023-05-11T15:09:11.312Z,33.12
2023-05-11T15:11:37.893Z,33.68
2023-05-11T15:14:05.879Z,33.79
2023-05-11T15:16:32.928Z,33.80
2023-05-11T15:18:59.901Z,33.47
2023-05-11T15:21:27.685Z,33.91
2023-05-11T15:23:54.452Z,34.64
2023-05-11T15:26:22.245Z,34.61
2023-05-11T15:28:48.887Z,35.13
2023-05-11T15:31:15.909Z,33.87
2023-05-11T15:33:43.182Z,34.68
2023-05-11T15:36:15.119Z,34.99
2023-05-11T15:38:43.071Z,34.01
2023-05-11T15:41:09.816Z,34.31
2023-05-11T15:43:36.449Z,34.97
2023-05-11T15:46:06.960Z,34.36
2023-05-11T15:48:33.726Z,35.52
2023-05-11T15:51:01.262Z,36.05
2023-05-11T15:53:28.244Z,36.09
2023-05-11T15:55:55.821Z,36.41
2023-05-11T15:58:23.069Z,37.24
2023-05-11T16:00:49.813Z,36.83
2023-05-11T16:03:17.144Z,36.99
2023-05-11T16:05:44.649Z,37.53
2023-05-11T16:08:11.288Z,41.17
2023-05-11T16:10:38.001Z,37.13
2023-05-11T16:13:04.646Z,37.30
2023-05-11T16:15:31.692Z,37.25
2023-05-11T16:17:58.586Z,37.77
2023-05-11T16:20:25.381Z,38.89
2023-05-11T16:22:52.221Z,38.61
2023-05-11T16:25:18.947Z,39.52
2023-05-11T16:27:45.846Z,39.01
2023-05-11T16:30:23.258Z,38.62
2023-05-11T16:32:52.246Z,39.29
2023-05-11T16:35:19.073Z,39.00
2023-05-11T16:37:46.769Z,38.92
2023-05-11T16:40:13.517Z,39.11
2023-05-11T16:42:40.172Z,39.20
2023-05-11T16:45:07.200Z,40.25
2023-05-11T16:47:33.896Z,40.67
2023-05-11T16:50:00.639Z,39.83
2023-05-11T16:52:27.588Z,41.29
2023-05-11T16:54:54.650Z,39.76
2023-05-11T16:57:22.305Z,39.64
2023-05-11T16:59:48.914Z,39.58
2023-05-11T17:02:15.589Z,40.13
2023-05-11T17:04:42.468Z,40.57
2023-05-11T17:07:11.437Z,41.38
2023-05-11T17:09:37.972Z,40.81
2023-05-11T17:12:09.323Z,40.65
2023-05-11T17:14:36.773Z,40.12
2023-05-11T17:17:07.985Z,40.50
2023-05-11T17:19:34.815Z,41.66
2023-05-11T17:22:01.397Z,41.65
2023-05-11T17:24:28.536Z,42.00
2023-05-11T17:26:55.307Z,42.06
2023-05-11T17:29:22.336Z,42.26
2023-05-11T17:31:51.365Z,41.06
2023-05-11T17:34:18.813Z,42.03
2023-05-11T17:36:45.523Z,42.19
2023-05-11T17:39:12.649Z,41.83
2023-05-11T17:41:39.663Z,42.07
2023-05-11T17:44:06.209Z,42.62
2023-05-11T17:46:32.827Z,42.14
2023-05-11T17:48:59.566Z,42.39
2023-05-11T17:51:27.452Z,42.27
2023-05-11T17:53:54.390Z,42.13
2023-05-11T17:56:22.207Z,42.69
2023-05-11T17:58:51.364Z,43.80
2023-05-11T18:01:18.140Z,42.57
2023-05-11T18:03:45.214Z,42.50
2023-05-11T18:06:11.930Z,42.50
2023-05-11T18:08:38.539Z,42.52
2023-05-11T18:11:05.377Z,43.11
2023-05-11T18:13:32.002Z,42.67
2023-05-11T18:15:59.655Z,43.29
2023-05-11T18:18:26.445Z,45.08
2023-05-11T18:20:54.006Z,43.97
2023-05-11T18:23:20.607Z,44.15
2023-05-11T18:25:47.225Z,46.09
2023-05-11T18:28:13.859Z,44.01
2023-05-11T18:30:40.535Z,45.02
2023-05-11T18:33:07.219Z,44.30
2023-05-11T18:35:34.179Z,45.16
2023-05-11T18:38:03.210Z,44.80
2023-05-11T18:40:29.792Z,44.43
2023-05-11T18:42:56.411Z,45.69
2023-05-11T18:45:23.256Z,44.88
2023-05-11T18:47:51.012Z,44.77
2023-05-11T18:50:17.826Z,44.98
2023-05-11T18:52:44.905Z,45.15
2023-05-11T18:55:11.535Z,46.29
2023-05-11T18:57:39.697Z,46.07
2023-05-11T19:00:07.257Z,45.43
2023-05-11T19:02:34.072Z,45.42
2023-05-11T19:05:01.267Z,45.69
2023-05-11T19:07:28.475Z,46.60
2023-05-11T19:09:55.388Z,49.28
2023-05-11T19:12:22.291Z,47.63
2023-05-11T19:14:48.884Z,48.40
2023-05-11T19:17:15.606Z,49.76
2023-05-11T19:19:42.284Z,49.70
2023-05-11T19:22:09.365Z,51.38
2023-05-11T19:24:36.337Z,48.79
2023-05-11T19:27:07.651Z,50.63
2023-05-11T19:29:35.472Z,48.57
2023-05-11T19:32:02.578Z,49.62
2023-05-11T19:34:29.946Z,50.07
2023-05-11T19:36:56.486Z,49.46
2023-05-11T19:39:24.335Z,49.69
2023-05-11T19:41:50.976Z,51.67
2023-05-11T19:44:17.840Z,51.60
2023-05-11T19:46:46.822Z,50.41
2023-05-11T19:49:14.999Z,51.54
2023-05-11T19:51:42.697Z,51.42
2023-05-11T19:54:10.700Z,53.03
2023-05-11T19:56:37.366Z,52.98
2023-05-11T19:59:04.620Z,52.96
2023-05-11T20:01:31.591Z,51.43
2023-05-11T20:03:58.756Z,53.04
2023-05-11T20:06:26.099Z,52.08
2023-05-11T20:08:53.151Z,51.55
2023-05-11T20:11:20.051Z,51.62
2023-05-11T20:13:47.748Z,53.21
2023-05-11T20:16:14.605Z,53.36
2023-05-11T20:18:41.564Z,52.58
2023-05-11T20:21:08.127Z,53.28
2023-05-11T20:23:37.103Z,52.07
2023-05-11T20:26:04.288Z,52.97
2023-05-11T20:28:31.028Z,54.30
2023-05-11T20:30:57.590Z,53.52
2023-05-11T20:35:53.809Z,54.31
2023-05-11T20:38:22.029Z,53.59
2023-05-11T20:40:48.594Z,54.41
2023-05-11T20:43:16.134Z,55.37
2023-05-11T20:45:43.685Z,54.75
2023-05-11T20:48:10.830Z,54.76
2023-05-11T20:50:39.166Z,55.56
2023-05-11T20:53:06.099Z,56.20
2023-05-11T20:55:32.791Z,55.24
2023-05-11T20:57:59.512Z,55.28
2023-05-11T21:00:26.163Z,55.33
2023-05-11T21:02:52.853Z,55.55
2023-05-11T21:05:19.725Z,55.88
2023-05-11T21:07:46.316Z,56.48
2023-05-11T21:10:13.047Z,55.01
2023-05-11T21:12:39.675Z,55.94
2023-05-11T21:15:07.231Z,56.13
2023-05-11T21:17:34.337Z,56.05
2023-05-11T21:20:02.142Z,56.47
2023-05-11T21:22:28.954Z,57.42
2023-05-11T21:24:55.515Z,56.96
2023-05-11T21:27:21.989Z,56.88
2023-05-11T21:29:49.123Z,57.67
2023-05-11T21:32:15.872Z,57.19
2023-05-11T21:34:43.205Z,57.03
2023-05-11T21:37:09.800Z,56.62
2023-05-11T21:39:36.323Z,56.74
2023-05-11T21:42:03.480Z,55.61
2023-05-11T21:44:30.076Z,55.84
2023-05-11T21:46:56.945Z,55.97
2023-05-11T21:49:23.577Z,56.13
2023-05-11T21:51:50.666Z,55.95
2023-05-11T21:54:22.035Z,56.15
2023-05-11T21:56:49.530Z,55.79
2023-05-11T21:59:19.680Z,55.54
2023-05-11T22:01:47.923Z,55.29
2023-05-11T22:04:14.751Z,55.48
2023-05-11T22:06:41.539Z,55.94
2023-05-11T22:09:08.091Z,56.01
2023-05-11T22:11:38.515Z,56.11
2023-05-11T22:14:05.463Z,56.06
2023-05-11T22:16:32.756Z,55.68
2023-05-11T22:18:59.467Z,54.64
2023-05-11T22:21:27.832Z,54.47
2023-05-11T22:23:54.505Z,54.82
2023-05-11T22:26:21.188Z,55.02
2023-05-11T22:28:47.873Z,54.86
2023-05-11T22:31:14.452Z,55.33
2023-05-11T22:33:41.222Z,54.69
2023-05-11T22:36:08.340Z,53.86
2023-05-11T22:38:37.483Z,53.99
2023-05-11T22:41:04.798Z,53.77
2023-05-11T22:43:31.821Z,53.09
2023-05-11T22:45:58.593Z,52.78
2023-05-11T22:48:25.374Z,52.73
2023-05-11T22:50:51.981Z,52.43
2023-05-11T22:53:22.868Z,52.58
2023-05-11T22:55:49.612Z,52.18
2023-05-11T22:58:17.049Z,52.04
2023-05-11T23:00:43.723Z,52.05
2023-05-11T23:03:10.520Z,52.44
2023-05-11T23:05:37.324Z,52.00
2023-05-11T23:08:03.972Z,51.67
2023-05-11T23:10:30.606Z,52.13
2023-05-11T23:12:57.200Z,51.74
2023-05-11T23:15:23.819Z,51.87
2023-05-11T23:17:50.395Z,52.04
2023-05-11T23:20:17.222Z,51.38
2023-05-11T23:22:43.946Z,51.36
2023-05-11T23:25:10.902Z,51.16
2023-05-11T23:27:37.753Z,51.66
2023-05-11T23:30:05.006Z,51.29
2023-05-11T23:32:31.867Z,51.22
2023-05-11T23:34:58.480Z,50.63
2023-05-11T23:37:25.549Z,51.36
2023-05-11T23:39:52.725Z,51.64
2023-05-11T23:42:19.519Z,51.82
2023-05-11T23:44:46.305Z,51.61
2023-05-11T23:47:13.016Z,51.84
2023-05-11T23:49:39.626Z,51.60
2023-05-11T23:52:06.502Z,51.63
2023-05-11T23:54:34.016Z,52.23
2023-05-11T23:57:02.219Z,51.64
2023-05-11T23:59:28.826Z,52.00
